Time;durP1;ratioP1;P1;durP2;ratioP2;P2;SDS_P1;SDS_P2;PMS_P1;PMS_P2;Temp;Humidity;BMP_temperature;BMP_pressure;BME280_temperature;BME280_humidity;BME280_pressure;Samples;Min_cycle;Max_cycle;Signal;HPM_P1;HPM_P2
2021/04/17 00:03:31;;;;;;;8.75;7.37;;;;;;;8.23;74.72;99166.14;1731881;81;25429;-42
2021/04/17 00:06:01;;;;;;;8.10;7.10;;;;;;;8.08;75.13;99165.59;1723106;81;21328;-43
2021/04/17 00:08:29;;;;;;;7.60;6.87;;;;;;;8.03;75.28;99175.29;1722230;81;21592;-43
2021/04/17 00:10:58;;;;;;;7.62;6.92;;;;;;;8.08;75.22;99173.69;1721795;82;21091;-43
2021/04/17 00:13:27;;;;;;;9.75;8.68;;;;;;;8.09;75.10;99167.13;1693099;82;21035;-43
2021/04/17 00:15:56;;;;;;;9.78;8.73;;;;;;;8.03;75.33;99172.59;1693347;82;21043;-43
2021/04/17 00:18:24;;;;;;;9.55;8.53;;;;;;;8.01;75.35;99173.49;1752728;79;21612;-43
2021/04/17 00:20:51;;;;;;;8.30;7.50;;;;;;;7.97;75.44;99173.97;1753477;81;21266;-43
2021/04/17 00:23:19;;;;;;;8.28;7.47;;;;;;;7.99;75.43;99177.09;1757390;80;21169;-43
2021/04/17 00:25:47;;;;;;;10.45;8.60;;;;;;;8.01;75.41;99173.49;1752807;79;21018;-44
2021/04/17 00:28:15;;;;;;;9.58;8.68;;;;;;;8.00;75.36;99178.66;1741295;79;21105;-44
2021/04/17 00:30:43;;;;;;;8.83;7.92;;;;;;;7.97;75.32;99179.93;1746966;79;21186;-43
2021/04/17 00:33:11;;;;;;;8.88;7.40;;;;;;;7.97;75.38;99184.77;1727892;81;23535;-43
2021/04/17 00:35:40;;;;;;;9.00;8.10;;;;;;;7.97;75.07;99178.02;1730226;81;21180;-43
2021/04/17 00:38:08;;;;;;;10.70;8.80;;;;;;;7.96;75.25;99177.80;1703850;82;21617;-43
2021/04/17 00:40:36;;;;;;;8.60;7.70;;;;;;;7.97;75.48;99182.62;1725029;81;21150;-43
2021/04/17 00:43:05;;;;;;;9.03;7.78;;;;;;;7.95;75.29;99181.62;1668082;84;21157;-43
2021/04/17 00:45:34;;;;;;;;;;;;;;;7.97;75.11;99183.42;1694214;82;21238;-43
2021/04/17 00:48:02;;;;;;;9.78;8.78;;;;;;;7.95;74.95;99178.13;1730249;81;20286;-43
2021/04/17 00:50:30;;;;;;;10.20;9.10;;;;;;;7.83;75.30;99177.64;1731470;81;21297;-43
2021/04/17 00:52:59;;;;;;;10.38;9.28;;;;;;;7.85;75.16;99179.42;1730858;81;21177;-43
2021/04/17 00:55:28;;;;;;;10.13;9.13;;;;;;;7.89;75.02;99180.88;1747250;81;21594;-43
2021/04/17 00:57:56;;;;;;;11.83;10.58;;;;;;;7.91;74.89;99184.80;1733869;81;21439;-43
2021/04/17 01:00:25;;;;;;;12.37;11.10;;;;;;;7.91;74.85;99190.19;1758706;81;21197;-43
2021/04/17 01:03:02;;;;;;;13.32;12.00;;;;;;;7.85;74.75;99189.65;1759292;81;21169;-43
2021/04/17 01:05:30;;;;;;;14.23;12.73;;;;;;;7.80;74.80;99195.86;1759578;81;21620;-43
2021/04/17 01:08:02;;;;;;;12.85;11.65;;;;;;;7.79;74.91;99191.02;1758901;81;21181;-43
2021/04/17 01:10:39;;;;;;;14.65;13.20;;;;;;;7.82;74.78;99191.70;1757472;80;21386;-43
2021/04/17 01:13:08;;;;;;;16.52;14.35;;;;;;;7.81;74.73;99189.34;1757933;80;21146;-44
2021/04/17 01:15:38;;;;;;;16.57;14.87;;;;;;;7.81;74.81;99193.39;1752445;79;21162;-43
2021/04/17 01:18:06;;;;;;;16.40;14.70;;;;;;;7.81;74.60;99196.09;1754504;79;21193;-43
2021/04/17 01:20:46;;;;;;;16.97;15.18;;;;;;;7.80;74.64;99186.41;1752529;79;21627;-43
2021/04/17 01:23:37;;;;;;;17.87;16.00;;;;;;;7.80;74.20;99189.90;1757255;80;21189;-43
2021/04/17 01:26:14;;;;;;;19.25;17.35;;;;;;;7.73;74.18;99191.63;1727117;81;21565;-43
2021/04/17 01:28:48;;;;;;;17.70;15.98;;;;;;;7.66;74.57;99198.17;1716970;82;21222;-43
2021/04/17 01:31:18;;;;;;;17.50;15.80;;;;;;;7.65;74.47;99207.42;1721770;81;22197;-43
2021/04/17 01:33:47;;;;;;;;;;;;;;;7.68;74.44;99201.33;1723960;81;21626;-43
2021/04/17 01:36:16;;;;;;;18.37;16.48;;;;;;;7.69;74.37;99201.55;1730410;81;21040;-43
2021/04/17 01:39:10;;;;;;;19.73;17.65;;;;;;;7.57;74.69;99199.67;1739185;81;21069;-43
2021/04/17 01:41:47;;;;;;;18.15;16.35;;;;;;;7.57;74.75;99204.28;1731851;81;21185;-43
2021/04/17 01:44:22;;;;;;;18.00;16.20;;;;;;;7.61;74.58;99205.16;1703667;84;21644;-43
2021/04/17 01:47:01;;;;;;;19.82;17.60;;;;;;;7.64;74.43;99207.19;1714951;81;21178;-42
2021/04/17 01:49:31;;;;;;;18.80;16.87;;;;;;;7.65;74.63;99213.57;1723623;81;22292;-43
2021/04/17 01:51:59;;;;;;;19.07;16.95;;;;;;;7.66;74.50;99207.61;1721561;81;21617;-43
2021/04/17 01:54:30;;;;;;;16.70;15.10;;;;;;;7.62;74.35;99206.73;1732272;81;21139;-43
2021/04/17 01:57:02;;;;;;;16.77;15.08;;;;;;;7.55;74.42;99214.05;1691648;82;21181;-43
2021/04/17 01:59:33;;;;;;;16.02;14.45;;;;;;;7.55;74.26;99209.25;1718899;81;21174;-43
2021/04/17 02:02:01;;;;;;;18.50;16.60;;;;;;;7.52;74.50;99213.96;1751140;79;21640;-43
2021/04/17 02:04:30;;;;;;;17.48;15.65;;;;;;;7.48;74.53;99215.22;1750938;79;21494;-43
2021/04/17 02:06:58;;;;;;;16.30;14.68;;;;;;;7.49;74.56;99217.36;1751065;79;21099;-43
2021/04/17 02:09:28;;;;;;;15.53;14.03;;;;;;;7.50;74.06;99221.07;1752396;79;21055;-43
2021/04/17 02:11:56;;;;;;;15.93;14.35;;;;;;;7.48;73.89;99216.56;1754900;79;21158;-43
2021/04/17 02:14:24;;;;;;;16.27;14.73;;;;;;;7.43;74.05;99218.16;1727589;82;21319;-44
2021/04/17 02:17:06;;;;;;;16.15;14.55;;;;;;;7.40;74.19;99218.84;1724399;81;21919;-43
2021/04/17 02:19:52;;;;;;;14.47;12.98;;;;;;;7.38;74.14;99223.23;1742291;81;21577;-43
2021/04/17 02:22:21;;;;;;;15.00;13.40;;;;;;;7.38;73.94;99220.53;1746235;81;21184;-43
2021/04/17 02:24:49;;;;;;;16.00;13.88;;;;;;;7.32;74.02;99221.88;1706245;82;21173;-43
2021/04/17 02:27:18;;;;;;;16.45;14.80;;;;;;;7.27;74.20;99223.47;1720308;81;21417;-43
2021/04/17 02:29:54;;;;;;;15.30;13.30;;;;;;;7.25;74.39;99220.34;1727283;81;21680;-43
2021/04/17 02:32:22;;;;;;;13.70;12.40;;;;;;;7.27;74.44;99231.55;1722925;81;21206;-43
2021/04/17 02:34:51;;;;;;;12.68;11.38;;;;;;;7.35;74.43;99229.31;1725336;81;21446;-43
2021/04/17 02:37:19;;;;;;;13.78;12.33;;;;;;;7.42;74.10;99233.55;1727091;82;21225;-43
2021/04/17 02:39:49;;;;;;;13.75;12.37;;;;;;;7.42;74.17;99232.20;1691647;82;25707;-43
2021/04/17 02:43:55;;;;;;;11.83;10.63;;;;;;;7.45;74.04;99229.40;1813048;79;22505;-42
2021/04/17 02:46:25;;;;;;;11.08;10.00;;;;;;;7.41;74.19;99236.02;1772589;80;21012;-42
2021/04/17 02:48:54;;;;;;;11.80;10.68;;;;;;;7.43;73.89;99239.17;1756848;80;21190;-42
2021/04/17 02:51:22;;;;;;;11.25;9.98;;;;;;;7.44;73.94;99246.70;1763661;80;21001;-42
2021/04/17 02:53:52;;;;;;;10.38;9.38;;;;;;;7.42;73.80;99242.20;1784855;80;20988;-42
2021/04/17 02:56:22;;;;;;;10.00;9.00;;;;;;;7.37;73.70;99248.62;1774400;80;21150;-42
2021/04/17 02:58:50;;;;;;;9.55;8.68;;;;;;;7.37;73.81;99250.52;1783042;79;21068;-42
2021/04/17 03:01:19;;;;;;;10.10;9.20;;;;;;;7.40;73.64;99252.00;1720871;83;21377;-42
2021/04/17 03:03:47;;;;;;;10.45;9.45;;;;;;;7.38;73.58;99254.80;1706313;83;21678;-43
2021/04/17 03:06:15;;;;;;;10.50;9.40;;;;;;;7.35;73.69;99261.67;1710444;81;21037;-42
2021/04/17 03:08:44;;;;;;;9.65;8.75;;;;;;;7.31;73.34;99262.70;1729314;81;21047;-42
2021/04/17 03:11:12;;;;;;;8.98;8.13;;;;;;;7.25;73.61;99266.19;1746665;81;21425;-42
2021/04/17 03:13:41;;;;;;;10.03;9.03;;;;;;;7.27;73.79;99274.70;1692390;83;21215;-42
2021/04/17 03:16:09;;;;;;;10.53;9.53;;;;;;;7.28;73.56;99268.19;1709846;83;21176;-42
2021/04/17 03:18:39;;;;;;;;;;;;;;;7.25;73.69;99272.92;1711159;83;21439;-42
2021/04/17 03:21:08;;;;;;;11.95;8.63;;;;;;;7.24;73.83;99270.00;1722317;83;20298;-42
2021/04/17 03:23:36;;;;;;;9.65;8.38;;;;;;;7.15;73.79;99276.63;1713468;83;22205;-42
2021/04/17 03:26:04;;;;;;;10.28;7.87;;;;;;;7.19;73.86;99276.97;1707090;83;21296;-42
2021/04/17 03:28:32;;;;;;;9.63;8.18;;;;;;;7.22;73.86;99281.67;1729677;81;21217;-42
2021/04/17 03:31:02;;;;;;;9.40;8.50;;;;;;;7.19;73.95;99287.75;1719446;83;21216;-42
2021/04/17 03:33:30;;;;;;;10.95;9.05;;;;;;;7.18;74.00;99284.03;1717806;82;21471;-42
2021/04/17 03:35:59;;;;;;;8.78;7.97;;;;;;;7.15;74.00;99285.51;1720571;82;21140;-42
2021/04/17 03:38:27;;;;;;;8.58;7.78;;;;;;;7.19;73.92;99290.45;1719413;82;21294;-42
2021/04/17 03:40:55;;;;;;;9.48;8.58;;;;;;;7.25;73.74;99288.31;1701903;84;21156;-42
2021/04/17 03:43:23;;;;;;;9.63;8.73;;;;;;;7.22;73.61;99292.45;1695833;82;20998;-42
2021/04/17 03:45:51;;;;;;;9.78;8.78;;;;;;;7.17;73.62;99295.38;1687200;83;21167;-41
2021/04/17 03:48:19;;;;;;;8.93;8.00;;;;;;;7.12;73.73;99301.00;1704104;83;21610;-42
2021/04/17 03:50:48;;;;;;;8.80;8.00;;;;;;;7.14;73.80;99302.80;1700600;83;21226;-42
2021/04/17 03:53:16;;;;;;;9.23;8.33;;;;;;;7.16;73.55;99304.61;1699309;82;21175;-42
2021/04/17 03:55:45;;;;;;;9.63;8.58;;;;;;;7.12;73.84;99305.04;1698922;83;21624;-42
2021/04/17 03:58:14;;;;;;;7.37;6.67;;;;;;;7.08;73.74;99312.79;1693140;83;21231;-42
2021/04/17 04:00:42;;;;;;;9.03;8.13;;;;;;;7.03;73.99;99312.45;1705701;83;21425;-42
2021/04/17 04:03:09;;;;;;;8.10;7.30;;;;;;;7.07;73.97;99317.39;1763597;80;21479;-42
2021/04/17 04:05:38;;;;;;;9.13;8.08;;;;;;;7.08;73.83;99317.63;1764166;80;21195;-42
2021/04/17 04:08:06;;;;;;;9.00;8.10;;;;;;;7.06;73.63;99322.58;1757304;80;21183;-42
2021/04/17 04:10:36;;;;;;;;;;;;;;;7.03;73.70;99325.93;1760651;80;21153;-42
2021/04/17 04:13:04;;;;;;;7.90;7.10;;;;;;;7.01;73.64;99325.50;1768295;80;20395;-42
2021/04/17 04:15:33;;;;;;;9.28;8.03;;;;;;;6.98;73.69;99328.84;1758767;80;21254;-43
2021/04/17 04:18:02;;;;;;;7.90;7.10;;;;;;;6.99;73.62;99331.77;1694557;83;21171;-42
2021/04/17 04:20:30;;;;;;;9.53;8.20;;;;;;;6.96;73.67;99333.25;1768848;80;21176;-42
2021/04/17 04:23:00;;;;;;;8.90;8.00;;;;;;;6.90;73.75;99331.09;1700591;83;21202;-42
2021/04/17 04:25:28;;;;;;;8.35;7.55;;;;;;;6.89;73.90;99336.25;1760291;80;21343;-42
2021/04/17 04:27:56;;;;;;;8.03;7.22;;;;;;;6.93;73.75;99341.98;1756045;80;21348;-42
2021/04/17 04:30:26;;;;;;;8.85;7.95;;;;;;;6.97;73.79;99343.47;1753371;80;21637;-42
2021/04/17 04:32:53;;;;;;;9.88;8.68;;;;;;;6.98;73.73;99345.80;1764294;80;20977;-42
2021/04/17 04:35:21;;;;;;;8.95;8.05;;;;;;;6.91;73.50;99349.63;1762710;80;21048;-42
2021/04/17 04:37:49;;;;;;;8.45;7.62;;;;;;;6.88;73.83;99352.19;1759799;80;21199;-42
2021/04/17 04:40:17;;;;;;;9.43;8.53;;;;;;;6.88;73.94;99354.88;1701607;83;21211;-42
2021/04/17 04:42:45;;;;;;;8.78;7.97;;;;;;;6.92;73.81;99361.97;1748965;80;21633;-42
2021/04/17 04:45:14;;;;;;;11.18;8.93;;;;;;;6.91;73.66;99361.77;1756322;80;21582;-42
2021/04/17 04:47:41;;;;;;;9.78;8.20;;;;;;;6.91;73.96;99363.66;1750410;80;21171;-42
2021/04/17 04:50:12;;;;;;;8.55;7.53;;;;;;;6.93;73.77;99357.36;1755177;80;21176;-42
2021/04/17 04:52:39;;;;;;;9.38;8.50;;;;;;;6.96;73.67;99366.14;1756745;80;21203;-42
2021/04/17 04:55:09;;;;;;;9.40;8.50;;;;;;;6.98;73.64;99364.67;1766782;80;21387;-42
2021/04/17 04:57:37;;;;;;;10.82;9.70;;;;;;;6.97;73.71;99376.57;1748294;80;21024;-42
2021/04/17 05:00:07;;;;;;;9.75;8.63;;;;;;;6.97;73.79;99377.16;1753547;80;21469;-42
2021/04/17 05:02:35;;;;;;;9.28;7.83;;;;;;;6.64;73.90;99323.86;1756489;80;21155;-41
2021/04/17 05:05:06;;;;;;;9.98;8.73;;;;;;;7.02;73.80;99381.55;1766405;81;21418;-42
2021/04/17 05:07:34;;;;;;;;;;;;;;;7.02;73.64;99377.50;1757208;80;21391;-42
2021/04/17 05:10:02;;;;;;;9.65;8.75;;;;;;;7.00;73.82;99384.56;1765157;79;20177;-42
2021/04/17 05:12:31;;;;;;;11.75;10.00;;;;;;;6.88;74.04;99384.52;1697308;83;22626;-42
2021/04/17 05:14:59;;;;;;;9.28;8.15;;;;;;;6.85;74.20;99391.38;1750271;79;21474;-42
2021/04/17 05:17:27;;;;;;;9.28;8.38;;;;;;;6.87;74.10;99395.86;1762212;80;21349;-42
2021/04/17 05:19:55;;;;;;;11.12;9.65;;;;;;;6.86;74.04;99392.97;1697220;83;21682;-42
2021/04/17 05:22:23;;;;;;;11.00;9.80;;;;;;;6.85;74.20;99398.68;1765479;80;21677;-42
2021/04/17 05:24:52;;;;;;;10.75;9.45;;;;;;;6.85;74.48;99395.98;1758798;80;21163;-42
2021/04/17 05:27:20;;;;;;;11.70;9.98;;;;;;;6.85;74.53;99401.38;1692290;83;21318;-42
2021/04/17 05:29:48;;;;;;;12.85;10.23;;;;;;;6.82;74.55;99397.45;1768980;80;21280;-42
2021/04/17 05:32:16;;;;;;;9.70;8.60;;;;;;;6.82;74.29;99404.74;1757042;80;21458;-42
2021/04/17 05:34:44;;;;;;;10.20;9.20;;;;;;;6.43;74.33;99343.58;1752297;80;21923;-42
2021/04/17 05:37:13;;;;;;;9.85;8.85;;;;;;;6.82;74.46;99403.39;1751287;80;21175;-42
2021/04/17 05:39:41;;;;;;;10.75;9.60;;;;;;;6.85;74.41;99406.77;1767162;80;21024;-42
2021/04/17 05:42:10;;;;;;;10.43;9.33;;;;;;;6.84;74.44;99407.88;1692684;83;21448;-42
2021/04/17 05:44:42;;;;;;;10.15;8.73;;;;;;;6.83;74.35;99407.09;1757302;80;21194;-42
2021/04/17 05:47:11;;;;;;;10.72;8.83;;;;;;;6.81;74.44;99411.25;1757208;80;21162;-42
2021/04/17 05:49:39;;;;;;;10.40;9.30;;;;;;;6.79;74.56;99410.78;1761510;80;21043;-42
2021/04/17 05:52:07;;;;;;;9.85;8.78;;;;;;;6.79;74.74;99416.95;1764737;80;21171;-42
2021/04/17 05:54:35;;;;;;;9.80;8.65;;;;;;;6.81;74.94;99413.94;1769946;80;21467;-42
2021/04/17 05:57:05;;;;;;;10.32;9.03;;;;;;;6.85;74.71;99422.93;1701912;83;21192;-42
2021/04/17 05:59:33;;;;;;;9.43;8.43;;;;;;;6.90;74.80;99428.90;1771345;80;21190;-42
2021/04/17 06:02:01;;;;;;;9.23;8.30;;;;;;;6.97;74.79;99422.39;1760866;80;21193;-42
2021/04/17 06:04:29;;;;;;;8.85;7.90;;;;;;;7.04;74.23;99430.50;1763879;80;21436;-42
2021/04/17 06:06:57;;;;;;;9.98;8.43;;;;;;;7.06;74.23;99435.80;1751931;80;21473;-42
2021/04/17 06:09:26;;;;;;;9.23;8.33;;;;;;;7.11;74.25;99439.63;1741774;81;21645;-42
2021/04/17 06:11:54;;;;;;;8.48;7.53;;;;;;;7.18;74.14;99440.41;1741604;82;22236;-42
2021/04/17 06:14:22;;;;;;;10.63;8.10;;;;;;;7.25;73.65;99442.00;1726553;80;21170;-42
2021/04/17 06:16:51;;;;;;;8.20;7.35;;;;;;;7.26;73.60;99438.95;1759311;80;21206;-41
2021/04/17 06:19:20;;;;;;;7.97;7.05;;;;;;;7.28;73.32;99434.02;1743669;79;21141;-42
2021/04/17 06:21:48;;;;;;;9.68;8.68;;;;;;;7.26;73.35;99445.70;1718125;82;21229;-42
2021/04/17 06:24:16;;;;;;;8.13;7.33;;;;;;;7.27;73.63;99445.92;1766712;80;21187;-42
2021/04/17 06:26:44;;;;;;;8.35;7.35;;;;;;;7.30;73.37;99445.28;1723645;81;21377;-42
2021/04/17 06:29:13;;;;;;;9.33;7.42;;;;;;;7.34;73.69;99448.88;1742394;80;21193;-42
2021/04/17 06:31:42;;;;;;;8.77;7.00;;;;;;;7.42;73.34;99452.02;1742345;80;21449;-42
2021/04/17 06:34:25;;;;;;;8.83;7.92;;;;;;;7.49;73.14;99450.68;1758535;80;21071;-42
2021/04/17 06:36:59;;;;;;;7.70;6.90;;;;;;;7.57;72.81;99451.13;1871764;76;22630;-42
2021/04/17 06:39:27;;;;;;;9.05;7.75;;;;;;;7.57;72.64;99453.83;1824261;78;21592;-42
2021/04/17 06:41:56;;;;;;;8.43;7.47;;;;;;;7.65;73.39;99462.39;1850765;75;21918;-42
2021/04/17 06:44:24;;;;;;;8.08;7.15;;;;;;;7.74;73.01;99459.80;1859128;77;20998;-42
2021/04/17 06:46:51;;;;;;;7.35;6.40;;;;;;;7.79;72.75;99464.19;1858291;77;21623;-42
2021/04/17 06:49:19;;;;;;;6.85;6.15;;;;;;;7.84;72.22;99462.61;1845742;77;21018;-42
2021/04/17 06:55:31;;;;;;;7.60;6.85;;;;;;;7.91;71.67;99461.47;1829103;77;22719;-41
2021/04/17 06:58:00;;;;;;;7.87;6.92;;;;;;;7.86;71.93;99465.74;1811416;79;21580;-42
2021/04/17 07:00:28;;;;;;;7.15;6.42;;;;;;;7.89;71.90;99463.70;1814805;79;21372;-42
2021/04/17 07:02:58;;;;;;;7.67;6.30;;;;;;;7.99;72.08;99463.25;1814852;79;21035;-42
2021/04/17 07:05:26;;;;;;;7.22;6.53;;;;;;;8.11;72.30;99464.59;1814684;79;21154;-42
2021/04/17 07:07:54;;;;;;;7.55;6.40;;;;;;;8.20;71.88;99469.86;1802903;79;20985;-42
2021/04/17 07:10:23;;;;;;;7.10;6.40;;;;;;;8.28;71.64;99467.58;1813883;79;21731;-42
2021/04/17 07:12:54;;;;;;;6.33;5.33;;;;;;;8.34;70.93;99474.36;1765332;80;21358;-42
2021/04/17 07:15:23;;;;;;;9.13;5.20;;;;;;;8.39;70.66;99469.28;1743771;80;21769;-42
2021/04/17 07:17:51;;;;;;;5.90;5.30;;;;;;;8.44;70.67;99470.40;1724562;80;22161;-41
2021/04/17 07:20:19;;;;;;;5.90;5.30;;;;;;;8.51;71.11;99476.02;1730717;82;21170;-42
2021/04/17 07:22:47;;;;;;;6.05;5.40;;;;;;;8.59;71.28;99478.58;1764039;80;21214;-41
2021/04/17 07:25:21;;;;;;;5.78;5.17;;;;;;;8.68;70.56;99467.62;1747918;82;21191;-41
2021/04/17 07:27:53;;;;;;;6.05;5.15;;;;;;;8.80;70.81;99474.90;1736732;81;21054;-42
2021/04/17 07:30:28;;;;;;;5.45;4.95;;;;;;;8.93;70.01;99478.55;1732111;82;21202;-42
2021/04/17 07:33:13;;;;;;;7.28;5.55;;;;;;;8.99;69.25;99481.23;1746262;81;21246;-41
2021/04/17 07:35:44;;;;;;;5.85;5.25;;;;;;;9.09;69.87;99483.44;1732318;82;21649;-41
2021/04/17 07:41:27;;;;;;;6.33;5.70;;;;;;;9.23;68.85;99490.34;1701759;82;22377;-43
2021/04/17 07:43:59;;;;;;;5.90;5.30;;;;;;;9.21;68.78;99489.89;1732334;81;21066;-43
2021/04/17 07:46:31;;;;;;;5.40;4.90;;;;;;;9.26;68.79;99491.00;1749329;81;21149;-43
2021/04/17 07:49:18;;;;;;;4.90;4.35;;;;;;;9.36;68.36;99493.19;1747985;82;21605;-43
2021/04/17 07:52:13;;;;;;;4.53;4.05;;;;;;;9.42;67.66;99489.11;1761795;80;22384;-43
2021/04/17 07:55:08;;;;;;;6.90;5.00;;;;;;;9.38;67.91;99490.37;1740208;82;21178;-43
2021/04/17 07:57:49;;;;;;;5.62;5.08;;;;;;;9.36;67.72;99487.78;1770021;79;21048;-43
2021/04/17 08:00:20;;;;;;;6.30;5.70;;;;;;;9.33;67.74;99492.55;1780298;79;21194;-43
2021/04/17 08:02:54;;;;;;;5.05;4.55;;;;;;;9.40;68.20;99488.66;1776177;79;21149;-43
2021/04/17 08:05:24;;;;;;;5.15;4.67;;;;;;;9.52;67.86;99490.73;1769650;81;21317;-43
2021/04/17 08:07:53;;;;;;;6.12;4.90;;;;;;;9.62;67.90;99490.77;1786455;79;21196;-43
2021/04/17 08:10:40;;;;;;;5.33;4.60;;;;;;;9.64;67.61;99493.91;1799097;79;21119;-43
2021/04/17 08:13:16;;;;;;;4.50;4.10;;;;;;;9.58;67.22;99504.80;1801077;79;21055;-43
2021/04/17 08:15:45;;;;;;;4.30;3.90;;;;;;;9.59;67.27;99502.28;1801284;79;22247;-43
2021/04/17 08:18:13;;;;;;;4.80;4.35;;;;;;;9.64;66.91;99502.02;1732341;82;21921;-43
2021/04/17 08:20:43;;;;;;;5.35;4.85;;;;;;;9.66;66.62;99506.53;1732382;82;21233;-43
2021/04/17 08:23:29;;;;;;;4.28;3.87;;;;;;;9.72;67.18;99501.64;1791990;79;21118;-43
2021/04/17 08:26:30;;;;;;;4.33;3.92;;;;;;;9.76;66.34;99503.30;1768469;80;21055;-44
2021/04/17 08:29:01;;;;;;;4.70;4.30;;;;;;;9.83;65.64;99503.45;1795204;79;21182;-43
2021/04/17 08:31:37;;;;;;;4.72;4.22;;;;;;;9.93;65.73;99502.13;1776806;79;22386;-44
2021/04/17 08:34:13;;;;;;;3.98;3.40;;;;;;;10.00;66.04;99512.58;1769249;81;21175;-43
2021/04/17 08:36:46;;;;;;;3.95;3.50;;;;;;;10.01;65.52;99504.68;1799554;79;21096;-44
2021/04/17 08:39:38;;;;;;;4.20;3.52;;;;;;;9.97;65.85;99509.20;1782508;79;21743;-44
2021/04/17 08:42:16;;;;;;;3.87;3.58;;;;;;;9.98;65.54;99508.08;1713418;82;21232;-42
2021/04/17 08:44:46;;;;;;;4.92;4.37;;;;;;;9.95;65.80;99510.14;1701659;84;21447;-42
2021/04/17 08:47:22;;;;;;;4.35;3.95;;;;;;;9.97;65.87;99512.51;1777304;79;21625;-42
2021/04/17 08:50:35;;;;;;;4.40;4.00;;;;;;;10.11;64.87;99506.63;1806617;77;27959;-42
2021/04/17 08:53:15;;;;;;;4.00;3.60;;;;;;;10.47;63.90;99514.42;1780904;79;21062;-43
2021/04/17 08:55:50;;;;;;;4.15;3.55;;;;;;;10.59;63.35;99514.31;1779239;78;21332;-42
2021/04/17 08:58:25;;;;;;;5.28;4.05;;;;;;;10.55;63.28;99512.11;1814156;78;21683;-42
2021/04/17 09:00:59;;;;;;;4.17;3.77;;;;;;;10.50;63.34;99508.31;1789431;79;21790;-42
2021/04/17 09:03:41;;;;;;;4.25;3.85;;;;;;;10.43;63.68;99509.50;1782669;80;21063;-42
2021/04/17 09:06:31;;;;;;;4.60;4.03;;;;;;;10.42;63.27;99505.22;1787006;79;21652;-42
2021/04/17 09:09:22;;;;;;;4.58;3.95;;;;;;;10.48;63.65;99509.23;1803067;78;21370;-42
2021/04/17 09:12:04;;;;;;;4.47;3.90;;;;;;;10.48;63.92;99516.00;1781850;79;21063;-42
2021/04/17 09:14:38;;;;;;;4.25;3.85;;;;;;;10.43;63.75;99506.80;1805681;78;21043;-42
2021/04/17 09:17:34;;;;;;;4.30;3.90;;;;;;;10.41;63.58;99506.34;1816868;78;21205;-42
2021/04/17 09:20:15;;;;;;;5.00;3.98;;;;;;;10.46;63.99;99510.92;1782996;78;21198;-42
2021/04/17 09:22:45;;;;;;;4.35;3.95;;;;;;;10.50;63.50;99512.95;1799508;79;22059;-42
2021/04/17 09:25:18;;;;;;;4.08;3.70;;;;;;;10.41;63.86;99511.20;1813587;79;21162;-42
2021/04/17 09:27:52;;;;;;;4.40;4.00;;;;;;;10.44;64.15;99507.80;1767654;81;21633;-42
2021/04/17 09:30:21;;;;;;;3.80;3.50;;;;;;;10.41;63.86;99509.84;1771506;80;21482;-42
2021/04/17 09:32:54;;;;;;;4.05;3.65;;;;;;;10.36;63.92;99509.36;1771419;79;21186;-42
2021/04/17 09:35:33;;;;;;;4.47;4.03;;;;;;;10.32;64.16;99503.84;1814067;78;21413;-42
2021/04/17 09:38:13;;;;;;;5.08;4.58;;;;;;;10.29;64.51;99510.55;1812299;79;21170;-42
2021/04/17 09:40:52;;;;;;;3.43;3.13;;;;;;;10.27;64.37;99503.33;1815114;78;21637;-42
2021/04/17 09:43:37;;;;;;;4.12;3.72;;;;;;;10.22;64.48;99511.16;1802694;79;21157;-42
2021/04/17 09:46:17;;;;;;;3.70;3.40;;;;;;;10.17;64.03;99512.79;1813842;79;21131;-42
2021/04/17 09:48:47;;;;;;;4.25;3.83;;;;;;;10.19;63.92;99512.45;1800563;79;21372;-42
2021/04/17 09:51:26;;;;;;;3.95;3.58;;;;;;;10.21;64.18;99514.25;1735084;82;21934;-42
2021/04/17 09:54:00;;;;;;;4.45;4.05;;;;;;;10.21;64.18;99516.39;1710963;83;21748;-42
2021/04/17 09:56:41;;;;;;;4.80;4.30;;;;;;;10.17;64.10;99523.63;1725254;82;21191;-43
2021/04/17 09:59:15;;;;;;;4.80;4.03;;;;;;;10.10;64.27;99520.73;1716706;83;21191;-49
2021/04/17 10:01:55;;;;;;;4.87;4.15;;;;;;;10.03;64.21;99524.06;1720005;82;21386;-48
2021/04/17 10:04:25;;;;;;;4.28;3.87;;;;;;;9.99;64.49;99525.91;1706005;83;21170;-49
2021/04/17 10:06:57;;;;;;;4.85;4.35;;;;;;;9.97;64.71;99535.53;1673592;83;21205;-48
2021/04/17 10:09:25;;;;;;;5.20;4.30;;;;;;;9.91;65.04;99532.30;1718468;82;21237;-47
2021/04/17 10:12:04;;;;;;;4.87;4.33;;;;;;;9.87;65.15;99532.78;1713026;82;21669;-43
2021/04/17 10:14:33;;;;;;;4.28;3.87;;;;;;;9.89;65.49;99535.13;1704542;82;21208;-43
2021/04/17 10:17:01;;;;;;;4.25;3.85;;;;;;;9.90;65.45;99545.61;1706978;82;21146;-41
2021/04/17 10:19:30;;;;;;;7.37;6.45;;;;;;;9.90;65.18;99544.26;1711151;83;21681;-45
2021/04/17 10:22:01;;;;;;;4.90;4.40;;;;;;;9.93;65.63;99544.91;1715051;83;20988;-45
2021/04/17 10:24:31;;;;;;;4.62;4.12;;;;;;;10.00;65.48;99544.30;1724233;83;21059;-45
2021/04/17 10:27:14;;;;;;;5.20;4.70;;;;;;;10.00;65.25;99545.09;1710022;83;22306;-46
2021/04/17 10:29:49;;;;;;;5.08;4.58;;;;;;;9.98;65.16;99548.70;1722944;83;21079;-44
2021/04/17 10:32:25;;;;;;;5.25;4.75;;;;;;;9.95;65.62;99545.34;1708655;82;22170;-44
2021/04/17 10:35:04;;;;;;;5.75;4.85;;;;;;;9.92;65.86;99554.16;1693899;84;21690;-45
2021/04/17 10:37:46;;;;;;;6.03;4.95;;;;;;;9.89;65.86;99556.22;1713870;83;21178;-45
2021/04/17 10:40:18;;;;;;;5.45;4.90;;;;;;;9.85;65.81;99554.56;1723796;83;21668;-44
2021/04/17 10:43:03;;;;;;;5.78;5.20;;;;;;;9.80;66.06;99558.31;1835030;78;22635;-45
2021/04/17 10:45:36;;;;;;;6.62;5.50;;;;;;;9.77;66.26;99563.66;1807687;79;21613;-44
2021/04/17 10:48:15;;;;;;;6.37;5.72;;;;;;;9.76;66.31;99566.13;1778635;79;21894;-45
2021/04/17 10:50:59;;;;;;;7.28;6.37;;;;;;;9.72;66.72;99564.70;1776219;79;21028;-46
2021/04/17 10:53:35;;;;;;;6.22;5.53;;;;;;;9.69;66.60;99565.94;1776408;79;20976;-45
2021/04/17 10:56:17;;;;;;;6.62;5.83;;;;;;;9.67;66.86;99570.38;1775458;80;22230;-45
2021/04/17 10:58:49;;;;;;;8.20;6.92;;;;;;;9.72;67.02;99572.83;1775639;80;21549;-46
2021/04/17 11:01:26;;;;;;;7.95;6.60;;;;;;;9.73;66.82;99580.38;1774454;80;22287;-46
2021/04/17 11:04:02;;;;;;;8.10;6.72;;;;;;;9.63;67.21;99576.83;1802231;79;21036;-45
2021/04/17 11:06:28;;;;;;;7.05;6.35;;;;;;;9.57;67.45;99581.14;1806798;79;21012;-46
2021/04/17 11:09:16;;;;;;;;;;;;;;;9.56;67.57;99582.83;1810220;79;21629;-46
2021/04/17 11:11:56;;;;;;;8.83;7.35;;;;;;;9.51;68.06;99588.50;1806554;79;20332;-46
2021/04/17 11:14:25;;;;;;;8.90;7.70;;;;;;;9.37;68.80;99593.53;1806655;79;21197;-46
2021/04/17 11:16:55;;;;;;;9.33;7.47;;;;;;;9.43;68.55;99596.22;1807283;79;20960;-47
2021/04/17 11:19:30;;;;;;;7.40;6.50;;;;;;;9.47;68.77;99587.62;1807477;79;21138;-45
2021/04/17 11:22:24;;;;;;;9.23;7.83;;;;;;;9.54;68.59;99589.94;1791798;79;21063;-47
2021/04/17 11:25:06;;;;;;;9.18;8.20;;;;;;;9.56;68.50;99593.09;1775389;80;21669;-46
2021/04/17 11:27:35;;;;;;;9.03;7.85;;;;;;;9.52;68.55;99591.43;1806556;79;21356;-45
2021/04/17 11:30:07;;;;;;;9.98;8.58;;;;;;;9.49;68.27;99592.10;1781180;79;21183;-46
2021/04/17 11:32:36;;;;;;;9.53;8.43;;;;;;;9.46;68.19;99603.06;1784432;79;20988;-45
2021/04/17 11:35:09;;;;;;;9.78;8.58;;;;;;;9.43;68.41;99597.57;1782714;79;21392;-48
2021/04/17 11:37:37;;;;;;;9.80;8.80;;;;;;;9.46;68.88;99600.92;1782169;79;21162;-48
2021/04/17 11:40:08;;;;;;;11.05;9.23;;;;;;;9.52;68.95;99594.92;1779301;79;21187;-48
2021/04/17 11:42:36;;;;;;;11.70;9.85;;;;;;;9.47;68.85;99583.56;1773780;79;21142;-48
2021/04/17 11:45:08;;;;;;;11.90;10.20;;;;;;;9.52;68.78;99598.20;1777645;79;21190;-48
2021/04/17 11:47:37;;;;;;;10.78;9.63;;;;;;;9.50;68.58;99599.89;1729986;81;21184;-48
2021/04/17 11:50:08;;;;;;;10.40;9.40;;;;;;;9.49;68.72;99598.87;1711899;82;21601;-48
2021/04/17 11:52:36;;;;;;;11.50;10.30;;;;;;;9.52;68.77;99596.28;1777862;79;21195;-48
2021/04/17 11:55:06;;;;;;;12.03;10.60;;;;;;;9.55;68.50;99600.20;1782163;79;21410;-48
2021/04/17 11:57:34;;;;;;;;;;;;;;;9.18;68.26;99548.19;1787806;79;21165;-48
2021/04/17 12:00:03;;;;;;;16.25;12.30;;;;;;;9.54;68.16;99599.97;1765029;79;20772;-49
2021/04/17 12:02:32;;;;;;;15.28;13.48;;;;;;;9.39;68.50;99607.52;1787143;79;21103;-49
2021/04/17 12:05:00;;;;;;;15.83;13.68;;;;;;;9.36;68.97;99605.48;1789838;78;22091;-49
2021/04/17 12:07:28;;;;;;;16.07;14.38;;;;;;;9.34;68.95;99607.20;1766840;79;21645;-49
2021/04/17 12:09:56;;;;;;;17.77;13.30;;;;;;;9.32;69.12;99608.66;1777608;78;21173;-49
2021/04/17 12:12:28;;;;;;;15.75;12.90;;;;;;;9.34;69.40;99609.11;1790155;78;21317;-49